USTRANSCOM 7582


KWRI
Joint Base McGuire Dix Lakehurst
Wrightstown, New Jersey, US
KNGU
Norfolk Naval Station (Chambers Field)
Norfolk, Virginia, US

Activity Log

Date Flight Route Aircraft Duration
10/15/2019 CMB802 N0453F370 MXE4 MXE OOD SBY/N0453F360 J209 SAWED J121 ORF V1 DRONE DRONE2 B752 1h 12m
09/14/2019 CMB802 N0352A160 MXE4 MXE V170 DQO V29 SBY J209 SAWED J121 ORF V1 DRONE DRONE2 B752 1h 05m
06/09/2019 CMB802 SIE V139 SWL B752 1h 26m
03/05/2019 CMB802 SIE J121 ORF B752 0h 43m

Route Details

Aircraft Information
Primary: Boeing 757-200SF
Backup: Not Available
Route Data
Distance: 701nm
Sched. Duration: 2h 14m
Avg. Duration: 0h 96m (-118m)
Times Flown: 4
Recm'd Route: SIE V139 SWL
Planned Altitude: 38,000ft
Origin Wx: KWRI 160856Z 26003KT 7SM -RA OVC036 08/08 A2958 RMK AO2A SLP017 P0007 60013 T00790079 57027 $
Dest. Wx: KNGU 160859Z 18003KT 10SM SCT036 BKN110 07/05 A2961 RMK AO2 SLP026 60009 T00670050 56019 $
Notes: USTRANSCOM CONTRACT FLIGHT

Financial History
Total Freight: 201,430lbs
Average Load: 50,358lbs/flt
Fuel Used: 37,219lbs
Avg. Fuel Used: 9,305lbs/flt
Fuel Expense: $35,391
Avg. Fuel Expense: $8,848
Avg. Fuel Cost: $0.94/lbs
Total Gross Income: $269,916
Pilot Pay: $756
Total Expenses: $29,359
Total Revenue: $204,140
Average Revenue: $67,479.05